Flight Track Log - Related Links

Times and Time Zones

All times are in EDT time to prevent confusion due to time zone crossing. See the N319EE flight status page for this flight to view local times or setup timezone preferences in your user account.

Time Position Orientation Groundspeed Altitude Reporting Facility
EDT Latitude Longitude Course Direction KTS MPH feet Rate Location/Type
Wed 08:10:29 PM 43.6694 -70.4739 284° West 158 182 5,000  Level Boston Center
Wed 08:11:28 PM 43.6767 -70.5283 280° West 158 182 6,600 1,700 Climbing Boston Center
Wed 08:12:29 PM 43.6817 -70.5942 276° West 158 182 8,400 1,785 Climbing Boston Center
Wed 08:13:29 PM 43.6786 -70.6517 266° West 163 188 10,200 1,916 Climbing Boston Center
Wed 08:14:28 PM 43.6733 -70.7206 264° West 171 197 12,200 1,600 Climbing Boston Center
Wed 08:15:29 PM 43.6700 -70.7781 265° West 171 197 13,400 1,563 Climbing Boston Center
Wed 08:16:27 PM 43.6647 -70.8472 264° West 171 197 15,300 1,322 Climbing Boston Center
Wed 08:17:27 PM 43.6614 -70.9047 265° West 171 197 16,000 295 Climbing Boston Center
Wed 08:18:29 PM 43.6561 -70.9908 265° West 188 216 15,900 -50 Descending Boston Center
Wed 08:19:26 PM 43.6489 -71.0686 263° West 232 267 15,900  Level Boston Center
Wed 08:20:27 PM 43.6436 -71.1664 266° West 237 273 15,900 50 Level Boston Center
Wed 08:21:26 PM 43.6361 -71.2439 262° West 237 273 16,000 50 Climbing Boston Center
Wed 08:22:27 PM 43.6308 -71.3328 265° West 237 273 16,000  Level Boston Center
Wed 08:23:27 PM 43.6233 -71.4278 264° West 237 273 16,000  Level Boston Center
Wed 08:24:28 PM 43.6158 -71.5053 262° West 237 273 16,000  Level Boston Center
Wed 08:25:27 PM 43.6103 -71.6028 266° West 237 273 16,000  Level Boston Center
Wed 08:26:27 PM 43.6044 -71.6803 264° West 237 273 16,000  Level Boston Center
Wed 08:27:28 PM 43.5947 -71.7778 262° West 237 273 16,000  Level Boston Center
Wed 08:28:28 PM 43.5908 -71.8553 266° West 237 273 16,000  Level Boston Center
Wed 08:29:29 PM 43.5831 -71.9500 264° West 237 273 16,000  Level Boston Center
Wed 08:30:29 PM 43.5750 -72.0389 263° West 237 273 16,000  Level Boston Center
Wed 08:31:26 PM 43.5692 -72.1250 265° West 237 273 16,000  Level Boston Center
Wed 08:32:27 PM 43.5611 -72.2108 263° West 237 273 16,000  Level Boston Center
Wed 08:33:29 PM 43.5550 -72.2969 264° West 237 273 16,000  Level Boston Center
Wed 08:34:27 PM 43.5486 -72.3886 265° West 237 273 16,000  Level Boston Center
Wed 08:35:27 PM 43.5403 -72.4744 262° West 237 273 16,000  Level Boston Center
Wed 08:36:28 PM 43.5319 -72.5633 263° West 237 273 16,000  Level Boston Center
Wed 08:37:26 PM 43.5256 -72.6519 264° West 237 273 16,000  Level Boston Center
Wed 08:38:27 PM 43.5169 -72.7436 263° West 237 273 16,000  Level Boston Center
Wed 08:39:27 PM 43.5083 -72.8294 262° West 237 273 16,000  Level Boston Center
Wed 08:40:28 PM 43.5039 -72.9208 266° West 237 273 16,000  Level Boston Center
Wed 08:41:26 PM 43.4953 -72.9925 261° West 237 273 16,000  Level Boston Center
Wed 08:42:27 PM 43.4844 -73.0839 261° West 237 273 16,000  Level Boston Center
Wed 08:43:27 PM 43.4756 -73.1753 262° West 237 273 16,000  Level Boston Center
Wed 08:44:29 PM 43.4686 -73.2611 264° West 237 273 16,000  Level Boston Center
Wed 08:45:27 PM 43.4597 -73.3497 262° West 237 273 16,000  Level Boston Center
Wed 08:46:28 PM 43.4528 -73.4353 264° West 237 273 16,000  Level Boston Center
Wed 08:47:29 PM 43.4436 -73.5267 262° West 237 273 16,000  Level Boston Center
Wed 08:48:29 PM 43.4344 -73.6122 262° West 237 273 16,000  Level Boston Center
Wed 08:49:27 PM 43.4272 -73.7036 264° West 237 273 16,000  Level Boston Center
Wed 08:50:27 PM 43.4178 -73.7950 262° West 237 273 16,000  Level Boston Center
Wed 08:51:28 PM 43.4103 -73.8892 264° West 237 273 16,000  Level Boston Center
Wed 08:52:26 PM 43.3986 -73.9775 260° West 237 273 16,000  Level Boston Center
Wed 08:53:27 PM 43.3911 -74.0744 264° West 237 273 16,000  Level Boston Center
Wed 08:54:27 PM 43.3833 -74.1714 264° West 242 278 16,000  Level Boston Center
Wed 08:55:29 PM 43.3739 -74.2539 261° West 242 278 16,000 -50 Level Boston Center
Wed 08:56:28 PM 43.3700 -74.3536 267° West 242 278 15,900 -50 Descending Boston Center
Wed 08:57:29 PM 43.3647 -74.4336 265° West 236 272 15,900 50 Level Boston Center
Wed 08:58:29 PM 43.3586 -74.5333 265° West 236 272 16,000 51 Climbing Boston Center
Wed 08:59:27 PM 43.3528 -74.6244 265° West 236 272 16,000  Level Boston Center
Wed 09:00:27 PM 43.3489 -74.7128 267° West 236 272 16,000  Level Boston Center
Wed 09:01:29 PM 43.3431 -74.8039 265° West 236 272 16,000  Level Boston Center
Wed 09:02:27 PM 43.3389 -74.8925 266° West 236 272 16,000  Level Boston Center
Wed 09:03:29 PM 43.3328 -74.9833 265° West 236 272 16,000  Level Boston Center
Wed 09:04:27 PM 43.3267 -75.0689 264° West 236 272 16,000  Level Boston Center
Wed 09:05:28 PM 43.3206 -75.1569 265° West 236 272 16,000  Level Boston Center
Wed 09:06:28 PM 43.3144 -75.2311 264° West 236 272 16,000  Level Boston Center
Wed 09:07:29 PM 43.3100 -75.3336 267° West 241 277 16,000  Level Boston Center
Wed 09:08:27 PM 43.3058 -75.4161 266° West 235 270 16,000  Level Boston Center
Wed 09:09:28 PM 43.3014 -75.5044 266° West 235 270 16,000  Level Boston Center
Wed 09:10:29 PM 43.2947 -75.5897 264° West 235 270 16,000  Level Boston Center
Wed 09:11:29 PM 43.2881 -75.6778 264° West 235 270 16,000  Level Boston Center
Wed 09:12:27 PM 43.2833 -75.7689 266° West 235 270 16,000  Level Boston Center
Wed 09:13:27 PM 43.2767 -75.8539 264° West 235 270 16,000  Level Boston Center
Wed 09:14:28 PM 43.2719 -75.9422 266° West 235 270 16,000  Level Boston Center
Wed 09:15:27 PM 43.2672 -76.0303 266° West 235 270 16,000  Level Boston Center
Wed 09:17:28 PM 43.2511 -76.2011 263° West 234 269 16,000  Level Cleveland Center
Wed 09:18:29 PM 43.2433 -76.3064 264° West 233 268 16,000 -49 Level Cleveland Center
Wed 09:19:31 PM 43.2367 -76.3956 264° West 235 270 15,900 -634 Descending Cleveland Center
Wed 09:20:32 PM 43.2297 -76.4892 264° West 245 282 14,700 -1,268 Descending Cleveland Center
Wed 09:21:34 PM 43.2219 -76.5925 264° West 268 308 13,300 -1,211 Descending Cleveland Center
Wed 09:22:21 PM 43.2178 -76.6819 266° West 275 316 12,500 -968 Descending Cleveland Center
Wed 09:22:36 PM 43.2150 -76.6972 256° West 274 315 12,300 -909 Descending Cleveland Center
Wed 09:23:27 PM 43.2086 -76.7983 265° West 274 315 11,500 -885 Descending Cleveland Center
Wed 09:23:37 PM 43.2058 -76.8008 213° Southwest 277 319 11,400 -545 Descending Cleveland Center
Wed 09:24:22 PM 43.1989 -76.8858 264° West 270 311 11,000 -387 Descending Cleveland Center
Wed 09:24:39 PM 43.1981 -76.9169 268° West 268 308 11,000  Level Cleveland Center
Wed 09:25:22 PM 43.1922 -76.9825 263° West 247 284 11,000 -393 Level Cleveland Center
Wed 09:25:40 PM 43.1906 -77.0094 265° West 250 288 10,600 -1,672 Descending Cleveland Center
Wed 09:26:23 PM 43.1858 -77.0764 264° West 251 289 9,300 -1,770 Descending Cleveland Center
Wed 09:26:41 PM 43.1819 -77.1053 260° West 255 293 8,800 -1,672 Descending Cleveland Center
Wed 09:27:24 PM 43.1761 -77.1783 264° West 251 289 7,600 -1,452 Descending Cleveland Center
Wed 09:27:43 PM 43.1733 -77.1983 259° West 251 289 7,300 -1,500 Descending Cleveland Center
Wed 09:28:24 PM 43.1678 -77.2689 264° West 242 278 6,100 -1,377 Descending Cleveland Center
Wed 09:28:44 PM 43.1661 -77.2889 263° West 244 281 5,900 -984 Descending Cleveland Center
Wed 09:29:25 PM 43.1639 -77.3575 267° West 226 260 5,100 -1,161 Descending Cleveland Center
Wed 09:29:46 PM 43.1611 -77.3739 257° West 228 262 4,700 -1,455 Descending Cleveland Center
Wed 09:30:31 PM 43.1539 -77.4447 262° West 220 253 3,500 -1,377 Descending Cleveland Center
Wed 09:30:47 PM 43.1533 -77.4567 266° West 222 255 3,300 -1,077 Descending Cleveland Center
Wed 09:31:49 PM 43.1458 -77.5511 264° West 212 244 2,100 -849 Descending Cleveland Center
Wed 09:32:33 PM 43.1403 -77.6006 261° West 168 193 1,800 -590 Descending Cleveland Center
Wed 09:32:50 PM 43.1361 -77.6158 250° West 190 219 1,500 -1,000 Descending Cleveland Center
Wed 09:33:33 PM 43.1250 -77.6489 245° Southwest 125 144 800 -871 Descending Cleveland Center
Wed 09:33:52 PM 43.1211 -77.6589 242° Southwest 156 180 600 -632 Descending Cleveland Center
Wed 09:35:00 PM 43.1167 -77.6667 270° West  Level FlightAware Approximate
Wed 09:42:00 PM 43.1191 -77.6719 270° West  Level Estimated

Login

Don't have an account? Register now (free) for customized features, flight alerts, and more!